Terminal Aerodrome Forecast
Issued by NWS Tuscon, AZ

Current Version | Previous Version | Text Only | Print | Product List | Glossary On
Versions: 1 2 3 4 5 6 7 8 9 10 11 12 13
000
FTUS45 KTWC 262300
TAFTUS
TAF
KTUS 262324Z 2700/2724 35007KT P6SM SKC
     FM270700 13007KT P6SM SKC
     FM271100 14012KT P6SM SKC
     FM271900 09006KT P6SM SKC=

USA.gov is the U.S. government's official web portal to all federal, state and local government web resources and services.